Time;durP1;ratioP1;P1;durP2;ratioP2;P2;SDS_P1;SDS_P2;PMS_P1;PMS_P2;Temp;Humidity;BMP_temperature;BMP_pressure;BME280_temperature;BME280_humidity;BME280_pressure;Samples;Min_cycle;Max_cycle;Signal;HPM_P1;HPM_P2
2024/01/10 00:02:21;;;;;;;211.90;124.70;;;;;;;-15.21;65.09;99516.69;107085;1254;22533;-77
2024/01/10 00:04:50;;;;;;;229.10;130.50;;;;;;;-15.11;65.31;99508.79;106881;1267;25430;-78
2024/01/10 00:07:17;;;;;;;215.50;123.10;;;;;;;-15.01;65.51;99501.30;107076;1264;22542;-78
2024/01/10 00:09:46;;;;;;;191.10;113.10;;;;;;;-14.94;65.40;99496.86;107071;1269;24279;-78
2024/01/10 00:12:14;;;;;;;225.00;127.40;;;;;;;-14.85;65.51;99498.01;107152;1260;22551;-76
2024/01/10 00:14:42;;;;;;;214.90;121.40;;;;;;;-14.76;65.07;99502.28;106738;1257;23246;-75
2024/01/10 00:17:10;;;;;;;214.10;122.40;;;;;;;-14.69;65.68;99505.95;106727;1269;22537;-76
2024/01/10 00:19:38;;;;;;;205.70;117.90;;;;;;;-14.63;65.47;99498.11;106744;1265;25389;-76
2024/01/10 00:22:06;;;;;;;213.70;123.50;;;;;;;-14.58;65.63;99497.45;106737;1262;22612;-76
2024/01/10 00:24:34;;;;;;;205.30;119.30;;;;;;;-14.57;65.81;99496.86;106799;1273;24216;-75
2024/01/10 00:27:02;;;;;;;212.90;119.30;;;;;;;-14.75;67.45;99497.17;106726;1274;22576;-75
2024/01/10 00:29:30;;;;;;;212.40;116.20;;;;;;;-15.05;67.47;99495.67;106667;1262;22568;-75
2024/01/10 00:31:59;;;;;;;199.30;114.50;;;;;;;-15.25;67.31;99500.52;106700;1265;25183;-75
2024/01/10 00:34:27;;;;;;;195.30;114.00;;;;;;;-15.37;66.73;99504.39;106856;1275;23873;-75
2024/01/10 00:36:55;;;;;;;183.20;110.00;;;;;;;-15.39;66.46;99503.99;106768;1265;23404;-75
2024/01/10 00:39:23;;;;;;;210.00;118.30;;;;;;;-15.28;66.65;99505.74;106737;1263;22790;-75
2024/01/10 00:41:51;;;;;;;182.30;104.80;;;;;;;-15.28;67.08;99503.67;106743;1273;24220;-75
2024/01/10 00:44:19;;;;;;;175.90;103.80;;;;;;;-15.28;67.18;99500.88;106865;1273;22633;-74
2024/01/10 00:46:47;;;;;;;187.00;107.10;;;;;;;-15.17;66.74;99502.26;106796;1276;22537;-75
2024/01/10 00:49:15;;;;;;;192.10;106.50;;;;;;;-15.11;66.92;99503.78;106839;1262;22540;-74
2024/01/10 00:51:43;;;;;;;191.20;112.30;;;;;;;-15.18;67.13;99507.70;106726;1265;24279;-74
2024/01/10 00:54:11;;;;;;;211.00;117.90;;;;;;;-15.14;66.66;99508.47;106664;1257;22615;-74
2024/01/10 00:56:39;;;;;;;190.90;110.60;;;;;;;-15.07;66.97;99513.22;106790;1265;22554;-76
2024/01/10 00:59:07;;;;;;;183.10;109.70;;;;;;;-15.02;66.58;99518.41;106860;1270;24486;-75
2024/01/10 01:01:35;;;;;;;188.10;109.90;;;;;;;-14.98;66.45;99520.89;106755;1276;25189;-75
2024/01/10 01:04:03;;;;;;;175.10;102.60;;;;;;;-14.94;66.28;99520.16;106766;1253;22586;-77
2024/01/10 01:06:31;;;;;;;177.30;106.00;;;;;;;-14.94;66.25;99516.02;107101;1276;24369;-78
2024/01/10 01:08:59;;;;;;;189.10;111.00;;;;;;;-14.93;66.40;99516.11;107131;1270;24248;-78
2024/01/10 01:11:27;;;;;;;194.10;117.90;;;;;;;-14.90;66.51;99515.37;107080;1265;22625;-77
2024/01/10 01:13:55;;;;;;;189.70;114.90;;;;;;;-14.85;66.49;99514.55;107099;1262;22948;-77
2024/01/10 01:16:23;;;;;;;193.70;113.10;;;;;;;-14.77;66.76;99519.58;107087;1273;23893;-77
2024/01/10 01:18:51;;;;;;;190.30;111.90;;;;;;;-14.71;66.81;99517.95;106952;1271;24249;-77
2024/01/10 01:21:19;;;;;;;185.00;111.90;;;;;;;-14.67;66.40;99518.60;106770;1265;25299;-77
2024/01/10 01:23:47;;;;;;;182.20;104.20;;;;;;;-14.62;66.30;99517.79;107199;1276;25694;-79
2024/01/10 01:26:15;;;;;;;176.40;101.60;;;;;;;-14.65;66.60;99515.90;107013;1273;22540;-77
2024/01/10 01:28:43;;;;;;;186.70;106.30;;;;;;;-14.77;67.08;99515.77;106845;1276;25362;-77
2024/01/10 01:31:11;;;;;;;195.50;112.10;;;;;;;-14.95;67.64;99516.04;106815;1262;22662;-76
2024/01/10 01:33:39;;;;;;;193.40;111.80;;;;;;;-15.08;67.21;99511.55;106795;1276;22534;-77
2024/01/10 01:36:07;;;;;;;202.30;124.50;;;;;;;-15.07;67.55;99505.61;107073;1275;22648;-77
2024/01/10 01:38:35;;;;;;;198.10;119.70;;;;;;;-15.02;66.79;99503.92;107012;1260;22534;-77
2024/01/10 01:41:05;;;;;;;186.40;108.40;;;;;;;-14.97;67.13;99499.46;107006;1276;23276;-76
2024/01/10 01:43:35;;;;;;;190.80;110.70;;;;;;;-14.97;66.78;99500.98;106925;1276;25362;-75
2024/01/10 01:46:03;;;;;;;187.50;112.10;;;;;;;-15.04;66.77;99494.23;106863;1265;24281;-76
2024/01/10 01:48:31;;;;;;;191.50;112.00;;;;;;;-15.12;66.71;99489.36;106694;1275;22680;-79
2024/01/10 01:51:06;;;;;;;191.10;110.10;;;;;;;-15.11;67.12;99488.80;106859;1264;22546;-79
2024/01/10 01:53:35;;;;;;;189.90;112.60;;;;;;;-15.09;66.61;99486.45;107390;1260;22544;-77
2024/01/10 01:56:08;;;;;;;191.50;109.90;;;;;;;-15.10;66.74;99480.13;108162;1265;25453;-77
2024/01/10 01:58:37;;;;;;;196.60;113.40;;;;;;;-15.28;67.32;99482.81;109596;1269;22575;-76
2024/01/10 02:01:05;;;;;;;205.10;116.50;;;;;;;-15.50;67.83;99476.95;107168;1276;22538;-77
2024/01/10 02:03:34;;;;;;;210.30;118.20;;;;;;;-15.63;67.24;99478.08;106989;1276;25365;-79
2024/01/10 02:06:03;;;;;;;200.60;120.90;;;;;;;-15.63;67.58;99479.82;107082;1275;22551;-79
2024/01/10 02:08:33;;;;;;;189.90;112.70;;;;;;;-15.52;67.31;99478.61;107188;1262;22536;-78
2024/01/10 02:11:02;;;;;;;190.70;112.10;;;;;;;-15.43;67.43;99474.25;107143;1264;22553;-79
2024/01/10 02:13:32;;;;;;;190.20;112.20;;;;;;;-15.44;67.62;99481.41;106812;1276;24235;-78
2024/01/10 02:16:01;;;;;;;181.70;107.40;;;;;;;-15.60;67.87;99484.59;106820;1272;24364;-78
2024/01/10 02:18:29;;;;;;;183.70;108.90;;;;;;;-15.71;67.55;99485.98;106798;1275;24328;-78
2024/01/10 02:20:57;;;;;;;188.00;109.70;;;;;;;-15.81;67.64;99481.43;107213;1275;22561;-79
2024/01/10 02:23:25;;;;;;;181.40;105.90;;;;;;;-15.81;67.83;99485.27;107130;1275;25361;-78
2024/01/10 02:25:53;;;;;;;173.40;104.40;;;;;;;-15.78;67.64;99487.84;107008;1276;24271;-76
2024/01/10 02:28:23;;;;;;;184.00;107.30;;;;;;;-15.81;67.41;99489.06;106854;1269;22561;-77
2024/01/10 02:30:53;;;;;;;198.80;112.20;;;;;;;-15.90;68.08;99490.44;106957;1265;22646;-77
2024/01/10 02:33:21;;;;;;;220.00;121.00;;;;;;;-15.96;68.36;99486.02;106825;1262;23703;-76
2024/01/10 02:35:49;;;;;;;221.70;126.20;;;;;;;-15.99;68.38;99481.67;106751;1269;25313;-77
2024/01/10 02:38:23;;;;;;;204.80;118.90;;;;;;;-15.88;68.20;99473.82;106794;1273;23356;-77
2024/01/10 02:40:51;;;;;;;201.50;114.80;;;;;;;-15.76;68.59;99471.48;106825;1276;25361;-77
2024/01/10 02:43:19;;;;;;;200.10;116.60;;;;;;;-15.65;68.09;99466.83;106655;1273;22538;-78
2024/01/10 02:45:47;;;;;;;205.10;117.80;;;;;;;-15.61;67.78;99468.83;107176;1262;24246;-76
2024/01/10 02:48:15;;;;;;;193.00;117.10;;;;;;;-15.68;67.76;99463.95;106692;1268;22769;-76
2024/01/10 02:50:43;;;;;;;210.40;120.90;;;;;;;-15.75;67.94;99466.29;106747;1270;23544;-75
2024/01/10 02:53:11;;;;;;;215.80;123.80;;;;;;;-15.71;67.38;99461.20;106691;1270;25260;-76
2024/01/10 02:55:40;;;;;;;201.50;116.40;;;;;;;-15.77;67.43;99461.56;106710;1258;22543;-78
2024/01/10 02:58:08;;;;;;;194.80;115.50;;;;;;;-15.82;67.98;99462.23;106847;1277;24336;-77
2024/01/10 03:00:37;;;;;;;204.80;118.00;;;;;;;-15.91;67.96;99461.07;107289;1275;22590;-76
2024/01/10 03:03:05;;;;;;;205.00;117.80;;;;;;;-16.07;68.57;99460.61;107084;1262;22664;-77
2024/01/10 03:05:33;;;;;;;204.90;125.40;;;;;;;-16.14;68.15;99459.38;106807;1262;24078;-78
2024/01/10 03:08:02;;;;;;;186.50;110.50;;;;;;;-16.03;68.25;99448.74;107199;1276;24226;-77
2024/01/10 03:10:30;;;;;;;191.40;116.20;;;;;;;-15.93;68.17;99450.52;106823;1261;24224;-76
2024/01/10 03:12:58;;;;;;;190.40;115.80;;;;;;;-15.86;68.43;99448.71;106763;1274;24216;-77
2024/01/10 03:15:26;;;;;;;190.60;117.00;;;;;;;-15.81;68.22;99445.51;106801;1267;22963;-77
2024/01/10 03:17:54;;;;;;;189.00;114.50;;;;;;;-15.93;67.60;99447.77;106914;1274;24248;-76
2024/01/10 03:20:22;;;;;;;194.30;115.30;;;;;;;-16.05;67.91;99442.61;106862;1271;22680;-77
2024/01/10 03:22:50;;;;;;;183.00;112.40;;;;;;;-16.12;68.13;99441.80;106813;1272;26668;-75
2024/01/10 03:25:18;;;;;;;182.00;111.20;;;;;;;-16.16;68.01;99441.08;106907;1262;24289;-75
2024/01/10 03:27:46;;;;;;;207.30;120.10;;;;;;;-16.15;68.22;99440.14;106964;1275;25343;-75
2024/01/10 03:30:14;;;;;;;197.80;118.40;;;;;;;-16.23;68.45;99439.20;106921;1264;22548;-76
2024/01/10 03:32:42;;;;;;;193.60;112.80;;;;;;;-16.37;69.32;99445.92;106747;1275;23161;-75
2024/01/10 03:35:11;;;;;;;184.00;110.20;;;;;;;-16.50;69.09;99447.02;106739;1273;22581;-76
2024/01/10 03:37:38;;;;;;;193.40;110.10;;;;;;;-16.52;68.44;99440.73;106721;1270;22860;-75
2024/01/10 03:40:07;;;;;;;203.10;116.50;;;;;;;-16.47;68.89;99441.00;106681;1272;22680;-75
2024/01/10 03:42:35;;;;;;;188.90;110.50;;;;;;;-16.46;68.74;99442.66;106851;1272;22556;-75
2024/01/10 03:45:04;;;;;;;203.50;113.60;;;;;;;-16.40;68.91;99436.13;106848;1265;22543;-75
2024/01/10 03:47:32;;;;;;;189.50;109.20;;;;;;;-16.38;69.22;99430.66;106893;1261;24342;-74
2024/01/10 03:50:00;;;;;;;197.80;118.30;;;;;;;-16.42;69.28;99438.12;106894;1275;22711;-75
2024/01/10 03:52:28;;;;;;;208.30;131.10;;;;;;;-16.47;69.18;99434.66;106963;1275;24648;-75
2024/01/10 03:54:57;;;;;;;172.20;107.50;;;;;;;-16.45;69.38;99438.63;106704;1263;25258;-75
2024/01/10 03:57:25;;;;;;;167.10;105.30;;;;;;;-16.43;69.27;99433.54;106727;1268;22657;-74
2024/01/10 03:59:53;;;;;;;167.10;103.20;;;;;;;-16.41;69.37;99437.75;106771;1265;24388;-75
2024/01/10 04:02:21;;;;;;;162.60;104.10;;;;;;;-16.38;69.45;99434.98;106709;1272;25431;-76
2024/01/10 04:04:50;;;;;;;220.20;141.30;;;;;;;-16.25;69.46;99428.89;106798;1274;22534;-75
2024/01/10 04:07:17;;;;;;;198.50;126.00;;;;;;;-16.13;69.27;99423.64;106888;1275;24335;-75
2024/01/10 04:09:45;;;;;;;178.70;112.60;;;;;;;-16.12;69.48;99422.92;106798;1262;22563;-76
2024/01/10 04:12:13;;;;;;;56.80;35.90;;;;;;;-16.21;69.43;99421.74;106740;1275;22796;-75
2024/01/10 04:14:41;;;;;;;170.30;105.80;;;;;;;-16.31;69.67;99414.95;106719;1262;22927;-76
2024/01/10 04:17:09;;;;;;;161.50;99.20;;;;;;;-16.35;70.42;99417.43;106807;1260;24210;-76
2024/01/10 04:19:37;;;;;;;163.10;97.60;;;;;;;-16.39;70.50;99410.45;106698;1273;23126;-75
2024/01/10 04:22:05;;;;;;;171.10;105.90;;;;;;;-16.36;70.59;99412.81;106735;1262;22814;-75
2024/01/10 04:24:33;;;;;;;159.70;101.40;;;;;;;-16.35;70.86;99412.62;106753;1274;25718;-75
2024/01/10 04:27:01;;;;;;;151.10;92.80;;;;;;;-16.43;71.18;99408.94;106759;1269;25403;-75
2024/01/10 04:29:29;;;;;;;145.70;93.90;;;;;;;-16.44;70.89;99408.13;106753;1266;24282;-75
2024/01/10 04:31:57;;;;;;;182.70;108.30;;;;;;;-16.40;71.93;99411.38;106782;1265;23890;-74
2024/01/10 04:34:25;;;;;;;205.00;116.50;;;;;;;-16.43;72.69;99413.92;106718;1262;22536;-75
2024/01/10 04:36:53;;;;;;;204.50;124.50;;;;;;;-16.44;72.78;99414.34;106785;1270;22543;-75
2024/01/10 04:39:21;;;;;;;202.10;123.10;;;;;;;-16.42;72.26;99418.69;106717;1263;22545;-76
2024/01/10 04:41:49;;;;;;;268.90;152.60;;;;;;;-16.30;72.13;99419.70;106665;1262;22667;-76
2024/01/10 04:44:17;;;;;;;186.50;112.30;;;;;;;-16.11;72.73;99418.55;106775;1262;23390;-75
2024/01/10 04:46:45;;;;;;;195.80;117.40;;;;;;;-16.05;72.44;99415.23;106821;1266;25601;-75
2024/01/10 04:49:13;;;;;;;179.10;108.40;;;;;;;-16.00;71.73;99421.35;106783;1272;24450;-75
2024/01/10 04:51:41;;;;;;;188.80;114.30;;;;;;;-15.93;72.18;99420.23;106764;1274;22566;-75
2024/01/10 04:54:09;;;;;;;193.30;115.00;;;;;;;-15.92;72.10;99417.75;106762;1275;24335;-77
2024/01/10 04:56:37;;;;;;;201.80;118.60;;;;;;;-15.89;71.97;99414.95;106748;1270;23100;-76
2024/01/10 04:59:05;;;;;;;172.20;103.40;;;;;;;-15.80;71.77;99409.24;106652;1275;25486;-76
2024/01/10 05:01:34;;;;;;;193.10;118.10;;;;;;;-15.67;72.11;99412.39;106848;1272;22642;-75
2024/01/10 05:04:02;;;;;;;194.80;115.70;;;;;;;-15.56;71.83;99407.05;106779;1265;25413;-75
2024/01/10 05:06:30;;;;;;;136.80;87.50;;;;;;;-15.47;71.68;99410.12;106776;1261;24270;-75
2024/01/10 05:08:58;;;;;;;133.50;85.40;;;;;;;-15.43;71.92;99409.12;106778;1263;22805;-76
2024/01/10 05:11:26;;;;;;;154.60;95.80;;;;;;;-15.49;72.19;99417.45;106834;1262;23028;-75
2024/01/10 05:13:54;;;;;;;159.80;97.60;;;;;;;-15.50;71.87;99420.98;107359;1275;22720;-74
2024/01/10 05:16:22;;;;;;;128.90;85.40;;;;;;;-15.46;71.61;99422.80;107040;1272;23253;-75
2024/01/10 05:18:50;;;;;;;149.20;92.40;;;;;;;-15.45;71.78;99421.54;106897;1275;24203;-75
2024/01/10 05:21:18;;;;;;;189.70;115.20;;;;;;;-15.48;71.84;99420.48;106955;1275;22582;-76
2024/01/10 05:23:46;;;;;;;175.50;106.80;;;;;;;-15.50;72.53;99420.42;106686;1276;22581;-75
2024/01/10 05:26:14;;;;;;;176.80;110.10;;;;;;;-15.55;72.40;99423.16;106566;1275;22550;-74
2024/01/10 05:28:42;;;;;;;158.90;99.60;;;;;;;-15.57;72.25;99418.80;106753;1275;22534;-74
2024/01/10 05:31:10;;;;;;;144.30;92.30;;;;;;;-15.57;72.55;99418.78;106744;1274;25443;-76
2024/01/10 05:33:38;;;;;;;155.10;97.50;;;;;;;-15.53;72.38;99416.36;106876;1265;25290;-75
2024/01/10 05:36:07;;;;;;;150.80;97.20;;;;;;;-15.44;72.28;99411.95;106703;1276;25436;-74
2024/01/10 05:38:35;;;;;;;154.00;100.60;;;;;;;-15.34;71.81;99412.36;106710;1273;22537;-75
2024/01/10 05:41:03;;;;;;;165.60;104.10;;;;;;;-15.27;71.89;99415.53;106839;1269;24597;-75
2024/01/10 05:43:31;;;;;;;132.60;87.10;;;;;;;-15.24;71.90;99412.41;106849;1274;22680;-75
2024/01/10 05:45:59;;;;;;;160.40;104.00;;;;;;;-15.31;72.10;99413.02;106877;1256;22562;-75
2024/01/10 05:48:27;;;;;;;163.50;101.90;;;;;;;-15.44;72.50;99411.45;106839;1274;22650;-75
2024/01/10 05:50:56;;;;;;;196.40;137.60;;;;;;;-15.51;72.49;99413.30;106865;1268;25389;-76
2024/01/10 05:53:24;;;;;;;169.50;106.00;;;;;;;-15.51;72.22;99416.71;106937;1274;25390;-76
2024/01/10 05:55:52;;;;;;;162.80;104.30;;;;;;;-15.46;72.28;99420.89;106972;1275;26070;-78
2024/01/10 05:58:21;;;;;;;168.20;106.00;;;;;;;-15.47;72.39;99426.09;107125;1268;23261;-79
2024/01/10 06:00:49;;;;;;;191.60;119.80;;;;;;;-15.50;72.00;99426.85;107240;1276;25314;-79
2024/01/10 06:03:16;;;;;;;215.00;134.40;;;;;;;-15.57;72.02;99426.05;106838;1273;22550;-78
2024/01/10 06:05:45;;;;;;;203.70;135.40;;;;;;;-15.61;71.87;99427.46;107622;1262;24317;-78
2024/01/10 06:08:14;;;;;;;226.40;147.50;;;;;;;-15.50;72.34;99428.71;107389;1269;22534;-79
2024/01/10 06:10:43;;;;;;;211.60;139.00;;;;;;;-15.45;72.52;99423.93;107295;1268;24293;-78
2024/01/10 06:13:11;;;;;;;218.30;141.90;;;;;;;-15.52;73.28;99432.29;107279;1276;23886;-80
2024/01/10 06:15:39;;;;;;;188.20;121.30;;;;;;;-15.59;72.94;99433.70;106840;1275;25375;-75
2024/01/10 06:18:07;;;;;;;162.50;103.50;;;;;;;-15.54;72.93;99431.70;106778;1267;25673;-75
2024/01/10 06:20:37;;;;;;;161.60;100.60;;;;;;;-15.44;72.86;99434.21;106878;1267;22541;-76
2024/01/10 06:23:06;;;;;;;166.30;103.00;;;;;;;-15.42;72.52;99439.72;106571;1267;22552;-79
2024/01/10 06:25:34;;;;;;;181.40;115.10;;;;;;;-15.47;72.99;99444.16;106834;1275;24215;-75
2024/01/10 06:28:03;;;;;;;178.60;115.20;;;;;;;-15.45;72.63;99444.96;106533;1263;22658;-75
2024/01/10 06:30:31;;;;;;;174.20;112.50;;;;;;;-15.42;72.36;99441.13;106775;1266;22537;-75
2024/01/10 06:32:59;;;;;;;191.30;119.40;;;;;;;-15.34;72.80;99439.91;106722;1269;24098;-73
2024/01/10 06:35:27;;;;;;;193.20;122.90;;;;;;;-15.23;72.74;99442.82;106790;1268;22942;-75
2024/01/10 06:37:55;;;;;;;177.70;114.80;;;;;;;-15.12;72.89;99446.80;106815;1264;24396;-75
2024/01/10 06:40:23;;;;;;;176.50;110.10;;;;;;;-15.00;72.95;99446.58;107382;1271;23304;-77
2024/01/10 06:42:51;;;;;;;177.60;109.80;;;;;;;-14.94;72.46;99445.15;106995;1275;23899;-76
2024/01/10 06:45:20;;;;;;;192.10;122.10;;;;;;;-14.90;72.36;99443.48;106859;1270;22534;-79
2024/01/10 06:47:48;;;;;;;207.60;124.70;;;;;;;-14.91;72.54;99439.42;106897;1256;25507;-80
2024/01/10 06:50:16;;;;;;;203.80;122.30;;;;;;;-14.89;72.01;99439.27;107246;1272;25313;-80
2024/01/10 06:52:44;;;;;;;193.00;114.90;;;;;;;-14.79;72.82;99436.75;107188;1266;25429;-79
2024/01/10 06:55:12;;;;;;;198.20;122.40;;;;;;;-14.66;73.21;99435.53;107601;1269;24089;-77
2024/01/10 06:57:40;;;;;;;186.50;119.90;;;;;;;-14.54;73.20;99434.42;107171;1269;25377;-78
2024/01/10 07:00:10;;;;;;;171.20;109.60;;;;;;;-14.46;72.64;99434.86;106840;1265;22994;-77
2024/01/10 07:02:39;;;;;;;196.80;130.00;;;;;;;-14.48;72.77;99434.33;106866;1272;24358;-76
2024/01/10 07:05:08;;;;;;;186.10;120.80;;;;;;;-14.55;72.72;99434.82;106868;1275;22544;-74
2024/01/10 07:07:37;;;;;;;200.90;131.90;;;;;;;-14.59;72.91;99436.14;106906;1265;22524;-76
2024/01/10 07:10:06;;;;;;;198.20;126.90;;;;;;;-14.58;73.14;99437.46;106885;1272;23353;-77
2024/01/10 07:12:34;;;;;;;214.70;137.80;;;;;;;-14.50;73.15;99437.58;106779;1275;25623;-76
2024/01/10 07:15:04;;;;;;;182.00;121.90;;;;;;;-14.44;73.00;99436.45;106969;1275;23075;-76
2024/01/10 07:17:33;;;;;;;198.90;126.90;;;;;;;-14.50;72.74;99441.04;106945;1265;22480;-76
2024/01/10 07:20:01;;;;;;;208.70;136.00;;;;;;;-14.48;72.91;99435.71;106848;1275;25574;-76
2024/01/10 07:22:29;;;;;;;217.40;137.60;;;;;;;-14.39;72.51;99427.87;106841;1265;22641;-77
2024/01/10 07:24:57;;;;;;;207.60;136.70;;;;;;;-14.27;72.91;99428.77;107479;1275;22604;-76
2024/01/10 07:27:25;;;;;;;208.60;135.90;;;;;;;-14.17;72.75;99427.76;106969;1263;24196;-76
2024/01/10 07:29:53;;;;;;;206.70;137.90;;;;;;;-14.10;72.42;99421.93;106976;1275;25314;-76
2024/01/10 07:32:21;;;;;;;217.10;142.50;;;;;;;-14.06;72.49;99422.51;107035;1270;22537;-77
2024/01/10 07:34:49;;;;;;;215.80;140.30;;;;;;;-14.03;72.51;99424.86;107007;1276;22843;-77
2024/01/10 07:37:20;;;;;;;216.10;138.00;;;;;;;-13.90;72.83;99424.88;106909;1276;22538;-77
2024/01/10 07:39:50;;;;;;;234.50;150.90;;;;;;;-13.75;73.01;99426.23;107000;1276;24266;-77
2024/01/10 07:42:18;;;;;;;245.40;159.90;;;;;;;-13.59;73.43;99428.58;107548;1276;22733;-77
2024/01/10 07:44:46;;;;;;;237.90;150.00;;;;;;;-13.44;73.40;99427.90;106909;1265;22614;-77
2024/01/10 07:47:16;;;;;;;246.80;158.20;;;;;;;-13.33;73.25;99426.55;106919;1266;22657;-77
2024/01/10 07:49:44;;;;;;;220.00;142.50;;;;;;;-13.20;73.55;99429.28;106906;1274;22754;-77
2024/01/10 07:52:12;;;;;;;213.10;135.40;;;;;;;-13.14;73.86;99423.93;106891;1275;24268;-77
2024/01/10 07:54:40;;;;;;;206.10;130.80;;;;;;;-13.12;73.87;99421.23;106890;1276;23469;-76
2024/01/10 07:57:08;;;;;;;215.40;132.00;;;;;;;-13.03;73.80;99424.54;106963;1275;22546;-76
2024/01/10 07:59:36;;;;;;;240.30;148.20;;;;;;;-12.92;74.07;99425.63;106661;1276;22531;-76
2024/01/10 08:02:04;;;;;;;271.20;173.90;;;;;;;-12.77;73.84;99422.79;107006;1269;24225;-75
2024/01/10 08:04:32;;;;;;;288.90;189.50;;;;;;;-12.58;74.23;99426.89;106905;1276;22656;-76
2024/01/10 08:07:00;;;;;;;251.40;160.00;;;;;;;-12.39;74.19;99424.10;106963;1259;25689;-76
2024/01/10 08:09:29;;;;;;;254.40;157.80;;;;;;;-12.21;74.41;99423.08;106842;1276;25392;-76
2024/01/10 08:11:57;;;;;;;241.00;155.40;;;;;;;-12.03;74.54;99422.60;106713;1275;24263;-75
2024/01/10 08:14:26;;;;;;;284.50;187.40;;;;;;;-11.89;74.32;99421.21;106805;1262;22655;-76
2024/01/10 08:16:57;;;;;;;276.30;185.70;;;;;;;-11.80;74.13;99427.70;106781;1262;24551;-76
2024/01/10 08:19:27;;;;;;;282.30;191.10;;;;;;;-11.66;74.25;99423.17;106893;1276;24265;-76
2024/01/10 08:21:56;;;;;;;282.30;192.50;;;;;;;-11.57;74.17;99423.52;106901;1265;23412;-76
2024/01/10 08:24:24;;;;;;;320.10;211.10;;;;;;;-11.48;74.26;99422.77;106791;1276;25374;-76
2024/01/10 08:26:52;;;;;;;365.80;242.80;;;;;;;-11.36;74.41;99420.68;107409;1265;22541;-76
2024/01/10 08:29:21;;;;;;;369.80;241.40;;;;;;;-11.24;74.47;99422.63;106972;1276;26670;-75
2024/01/10 08:31:49;;;;;;;371.30;238.30;;;;;;;-11.14;74.50;99422.17;106936;1259;22646;-76
2024/01/10 08:34:18;;;;;;;413.50;291.90;;;;;;;-11.00;74.70;99417.11;106970;1273;24055;-77
2024/01/10 08:36:50;;;;;;;362.50;234.80;;;;;;;-10.88;74.68;99424.08;106745;1273;22626;-77
2024/01/10 08:39:18;;;;;;;331.70;215.90;;;;;;;-10.73;74.81;99422.02;107193;1261;22584;-75
2024/01/10 08:41:46;;;;;;;328.70;214.00;;;;;;;-10.60;74.85;99422.51;106802;1276;22802;-77
2024/01/10 08:44:14;;;;;;;350.40;224.90;;;;;;;-10.47;74.96;99421.77;106667;1275;25007;-76
2024/01/10 08:46:42;;;;;;;373.70;230.20;;;;;;;-10.37;75.04;99418.29;106776;1276;22563;-77
2024/01/10 08:49:11;;;;;;;354.00;221.30;;;;;;;-10.24;75.05;99418.46;106844;1276;22550;-76
2024/01/10 08:51:40;;;;;;;330.70;210.80;;;;;;;-10.07;75.43;99420.68;106795;1276;25258;-77
2024/01/10 08:54:08;;;;;;;309.40;205.30;;;;;;;-9.93;75.38;99422.23;106785;1270;25242;-77
2024/01/10 08:56:36;;;;;;;280.10;182.40;;;;;;;-9.78;75.68;99424.95;106845;1269;23220;-77
2024/01/10 08:59:04;;;;;;;264.00;161.60;;;;;;;-9.65;75.49;99418.98;106799;1275;25255;-76
2024/01/10 09:01:33;;;;;;;255.10;156.10;;;;;;;-9.55;75.60;99421.63;106806;1254;25900;-77
2024/01/10 09:04:03;;;;;;;250.80;152.20;;;;;;;-9.49;76.15;99421.95;106965;1276;22541;-75
2024/01/10 09:06:32;;;;;;;239.10;151.10;;;;;;;-9.43;75.96;99424.04;106993;1263;24040;-76
2024/01/10 09:09:01;;;;;;;228.20;145.90;;;;;;;-9.33;75.92;99418.09;107109;1275;25245;-76
2024/01/10 09:11:29;;;;;;;213.80;138.40;;;;;;;-9.21;76.11;99417.23;106885;1270;22590;-76
2024/01/10 09:13:57;;;;;;;209.30;133.10;;;;;;;-9.11;76.26;99418.81;106855;1267;23014;-77
2024/01/10 09:16:25;;;;;;;203.90;129.60;;;;;;;-9.01;76.43;99418.93;106826;1266;25440;-77
2024/01/10 09:18:56;;;;;;;215.00;132.80;;;;;;;-8.91;76.22;99415.92;106823;1276;22559;-77
2024/01/10 09:21:26;;;;;;;211.90;130.00;;;;;;;-8.79;76.58;99415.98;106793;1276;22537;-77
2024/01/10 09:23:55;;;;;;;198.70;122.30;;;;;;;-8.59;76.57;99417.13;106931;1276;22985;-78
2024/01/10 09:26:24;;;;;;;203.30;123.00;;;;;;;-8.41;76.75;99410.24;107097;1276;22547;-78
2024/01/10 09:28:52;;;;;;;205.10;120.90;;;;;;;-8.25;76.68;99404.17;106927;1276;25290;-77
2024/01/10 09:31:20;;;;;;;208.00;124.00;;;;;;;-8.11;76.80;99404.16;106816;1261;24364;-77
2024/01/10 09:33:48;;;;;;;207.20;125.10;;;;;;;-7.96;76.60;99398.37;106797;1276;22539;-77
2024/01/10 09:36:16;;;;;;;219.70;132.40;;;;;;;-7.83;76.64;99399.59;106782;1270;22531;-77
2024/01/10 09:38:44;;;;;;;179.30;112.20;;;;;;;-7.75;76.55;99398.86;106654;1276;24275;-77
2024/01/10 09:41:13;;;;;;;171.90;105.40;;;;;;;-7.74;76.41;99399.79;106915;1266;22550;-77
2024/01/10 09:43:41;;;;;;;176.50;105.30;;;;;;;-7.71;76.71;99398.84;106828;1273;22693;-77
2024/01/10 09:46:10;;;;;;;168.00;103.70;;;;;;;-7.62;76.99;99393.40;107242;1273;22538;-77
2024/01/10 09:48:38;;;;;;;174.90;108.50;;;;;;;-7.53;76.77;99390.45;106793;1276;22679;-76
2024/01/10 09:51:07;;;;;;;172.60;111.80;;;;;;;-7.43;76.61;99383.09;106970;1261;22530;-76
2024/01/10 09:53:38;;;;;;;167.20;108.70;;;;;;;-7.40;76.24;99376.46;106814;1276;22562;-76
2024/01/10 09:56:08;;;;;;;167.50;109.00;;;;;;;-7.40;76.20;99377.02;106665;1275;22531;-76
2024/01/10 09:58:39;;;;;;;171.90;112.00;;;;;;;-7.35;76.11;99378.41;106782;1262;24263;-78
2024/01/10 10:01:08;;;;;;;167.10;107.40;;;;;;;-7.28;76.30;99376.05;106769;1264;23754;-76
2024/01/10 10:03:39;;;;;;;164.90;103.30;;;;;;;-7.21;76.29;99379.23;106961;1261;25375;-76
2024/01/10 10:06:08;;;;;;;160.80;101.00;;;;;;;-7.13;76.23;99375.42;106984;1276;22914;-77
2024/01/10 10:08:41;;;;;;;156.60;100.50;;;;;;;-7.00;76.21;99369.65;106862;1267;24333;-74
2024/01/10 10:11:14;;;;;;;148.40;95.60;;;;;;;-6.85;76.27;99365.69;107350;1270;24303;-77
2024/01/10 10:13:42;;;;;;;148.50;92.90;;;;;;;-6.66;76.52;99359.95;106795;1270;25351;-76
2024/01/10 10:16:12;;;;;;;153.00;98.20;;;;;;;-6.46;76.54;99364.52;106839;1276;22558;-77
2024/01/10 10:18:42;;;;;;;143.50;93.70;;;;;;;-6.35;76.54;99356.98;106895;1255;24289;-77
2024/01/10 10:21:13;;;;;;;132.30;92.00;;;;;;;-6.09;76.97;99365.36;106892;1265;23093;-77
2024/01/10 10:23:56;;;;;;;140.80;94.10;;;;;;;-5.82;77.02;99369.50;106754;1270;22557;-76
2024/01/10 10:26:27;;;;;;;148.50;95.50;;;;;;;-5.60;76.71;99366.02;107248;1275;22909;-77
2024/01/10 10:28:55;;;;;;;152.60;96.90;;;;;;;-5.46;76.73;99363.70;107232;1276;22608;-78
2024/01/10 10:31:24;;;;;;;140.70;94.30;;;;;;;-5.31;76.71;99364.20;106799;1276;24218;-77
2024/01/10 10:33:52;;;;;;;138.50;94.00;;;;;;;-5.23;76.05;99367.95;106641;1276;24265;-77
2024/01/10 10:36:21;;;;;;;141.20;93.00;;;;;;;-5.11;76.37;99363.67;107097;1273;25432;-77
2024/01/10 10:38:49;;;;;;;151.90;97.10;;;;;;;-4.98;76.34;99363.76;107265;1276;22552;-77
2024/01/10 10:41:18;;;;;;;139.50;92.70;;;;;;;-4.89;76.32;99367.64;106899;1275;22531;-77
2024/01/10 10:43:48;;;;;;;130.00;88.50;;;;;;;-4.86;76.00;99365.02;106943;1275;22540;-78
2024/01/10 10:46:16;;;;;;;116.10;82.60;;;;;;;-4.86;75.79;99363.17;106869;1264;24497;-76
2024/01/10 10:48:44;;;;;;;109.90;79.30;;;;;;;-4.88;75.65;99361.40;106988;1275;22540;-76
2024/01/10 10:51:26;;;;;;;112.40;81.10;;;;;;;-4.91;75.61;99360.68;106847;1275;22587;-75
2024/01/10 10:53:56;;;;;;;99.20;76.80;;;;;;;-4.83;76.18;99363.67;106828;1262;22650;-78
2024/01/10 10:56:27;;;;;;;89.80;73.50;;;;;;;-4.73;75.95;99364.92;106882;1266;23156;-74